sensor_id;sensor_type;location;lat;lon;timestamp;P1;durP1;ratioP1;P2;durP2;ratioP2
15818;SDS011;8010;53.986;12.106;2023-03-01T00:01:49;4.77;;;3.30;;
15818;SDS011;8010;53.986;12.106;2023-03-01T00:04:15;7.63;;;3.77;;
15818;SDS011;8010;53.986;12.106;2023-03-01T00:06:42;7.10;;;3.73;;
15818;SDS011;8010;53.986;12.106;2023-03-01T00:09:11;10.70;;;4.30;;
15818;SDS011;8010;53.986;12.106;2023-03-01T00:11:37;6.17;;;3.83;;
15818;SDS011;8010;53.986;12.106;2023-03-01T00:14:03;7.07;;;3.50;;
15818;SDS011;8010;53.986;12.106;2023-03-01T00:16:41;11.53;;;4.23;;
15818;SDS011;8010;53.986;12.106;2023-03-01T00:19:08;6.57;;;3.80;;
15818;SDS011;8010;53.986;12.106;2023-03-01T00:21:37;7.67;;;3.97;;
15818;SDS011;8010;53.986;12.106;2023-03-01T00:24:03;6.90;;;3.67;;
15818;SDS011;8010;53.986;12.106;2023-03-01T00:26:29;8.53;;;3.70;;
15818;SDS011;8010;53.986;12.106;2023-03-01T00:28:56;5.73;;;3.70;;
15818;SDS011;8010;53.986;12.106;2023-03-01T00:31:23;9.37;;;3.67;;
15818;SDS011;8010;53.986;12.106;2023-03-01T00:33:54;7.67;;;3.40;;
15818;SDS011;8010;53.986;12.106;2023-03-01T00:36:22;6.20;;;3.23;;
15818;SDS011;8010;53.986;12.106;2023-03-01T00:38:48;8.30;;;3.93;;
15818;SDS011;8010;53.986;12.106;2023-03-01T00:41:16;5.83;;;3.53;;
15818;SDS011;8010;53.986;12.106;2023-03-01T00:43:42;7.33;;;3.47;;
15818;SDS011;8010;53.986;12.106;2023-03-01T00:46:13;6.10;;;3.53;;
15818;SDS011;8010;53.986;12.106;2023-03-01T00:48:43;5.37;;;3.07;;
15818;SDS011;8010;53.986;12.106;2023-03-01T00:51:16;4.63;;;3.03;;
15818;SDS011;8010;53.986;12.106;2023-03-01T00:53:45;4.77;;;3.10;;
15818;SDS011;8010;53.986;12.106;2023-03-01T00:56:12;5.37;;;3.00;;
15818;SDS011;8010;53.986;12.106;2023-03-01T00:58:40;3.83;;;2.67;;
15818;SDS011;8010;53.986;12.106;2023-03-01T01:01:10;6.07;;;3.50;;
15818;SDS011;8010;53.986;12.106;2023-03-01T01:04:04;5.60;;;3.20;;
15818;SDS011;8010;53.986;12.106;2023-03-01T01:06:31;4.40;;;2.70;;
15818;SDS011;8010;53.986;12.106;2023-03-01T01:08:58;4.93;;;2.97;;
15818;SDS011;8010;53.986;12.106;2023-03-01T01:11:24;5.97;;;3.50;;
15818;SDS011;8010;53.986;12.106;2023-03-01T01:13:51;4.53;;;3.40;;
15818;SDS011;8010;53.986;12.106;2023-03-01T01:16:18;4.50;;;3.27;;
15818;SDS011;8010;53.986;12.106;2023-03-01T01:18:45;4.93;;;3.17;;
15818;SDS011;8010;53.986;12.106;2023-03-01T01:21:12;5.97;;;3.40;;
15818;SDS011;8010;53.986;12.106;2023-03-01T01:23:39;5.93;;;3.57;;
15818;SDS011;8010;53.986;12.106;2023-03-01T01:26:07;4.50;;;3.63;;
15818;SDS011;8010;53.986;12.106;2023-03-01T01:28:33;8.00;;;3.57;;
15818;SDS011;8010;53.986;12.106;2023-03-01T01:30:59;4.80;;;3.43;;
15818;SDS011;8010;53.986;12.106;2023-03-01T01:33:25;5.77;;;3.53;;
15818;SDS011;8010;53.986;12.106;2023-03-01T01:35:50;6.23;;;3.50;;
15818;SDS011;8010;53.986;12.106;2023-03-01T01:38:16;5.60;;;3.57;;
15818;SDS011;8010;53.986;12.106;2023-03-01T01:40:45;4.97;;;3.20;;
15818;SDS011;8010;53.986;12.106;2023-03-01T01:43:31;6.30;;;3.47;;
15818;SDS011;8010;53.986;12.106;2023-03-01T01:46:02;4.23;;;2.93;;
15818;SDS011;8010;53.986;12.106;2023-03-01T01:48:53;4.77;;;3.10;;
15818;SDS011;8010;53.986;12.106;2023-03-01T01:51:27;6.63;;;3.07;;
15818;SDS011;8010;53.986;12.106;2023-03-01T01:54:03;4.70;;;3.20;;
15818;SDS011;8010;53.986;12.106;2023-03-01T01:56:37;5.97;;;3.20;;
15818;SDS011;8010;53.986;12.106;2023-03-01T01:59:05;6.43;;;3.00;;
15818;SDS011;8010;53.986;12.106;2023-03-01T02:01:31;5.00;;;3.10;;
15818;SDS011;8010;53.986;12.106;2023-03-01T02:03:57;6.27;;;3.10;;
15818;SDS011;8010;53.986;12.106;2023-03-01T02:06:43;4.03;;;2.50;;
15818;SDS011;8010;53.986;12.106;2023-03-01T02:09:16;6.53;;;2.90;;
15818;SDS011;8010;53.986;12.106;2023-03-01T02:11:45;5.43;;;2.97;;
15818;SDS011;8010;53.986;12.106;2023-03-01T02:14:12;4.17;;;2.80;;
15818;SDS011;8010;53.986;12.106;2023-03-01T02:16:39;6.67;;;3.50;;
15818;SDS011;8010;53.986;12.106;2023-03-01T02:19:06;5.07;;;2.80;;
15818;SDS011;8010;53.986;12.106;2023-03-01T02:21:41;4.97;;;3.40;;
15818;SDS011;8010;53.986;12.106;2023-03-01T02:27:09;2.83;;;2.33;;
15818;SDS011;8010;53.986;12.106;2023-03-01T02:29:35;3.90;;;2.80;;
15818;SDS011;8010;53.986;12.106;2023-03-01T02:32:01;4.80;;;2.33;;
15818;SDS011;8010;53.986;12.106;2023-03-01T02:34:28;4.97;;;2.70;;
15818;SDS011;8010;53.986;12.106;2023-03-01T02:42:26;5.53;;;2.83;;
15818;SDS011;8010;53.986;12.106;2023-03-01T02:44:56;5.90;;;2.60;;
15818;SDS011;8010;53.986;12.106;2023-03-01T02:47:22;3.20;;;2.17;;
15818;SDS011;8010;53.986;12.106;2023-03-01T02:49:48;6.10;;;2.77;;
15818;SDS011;8010;53.986;12.106;2023-03-01T02:52:47;4.33;;;2.50;;
15818;SDS011;8010;53.986;12.106;2023-03-01T02:55:14;3.83;;;3.00;;
15818;SDS011;8010;53.986;12.106;2023-03-01T02:57:42;7.47;;;3.20;;
15818;SDS011;8010;53.986;12.106;2023-03-01T03:00:14;4.50;;;2.90;;
15818;SDS011;8010;53.986;12.106;2023-03-01T03:02:47;4.40;;;3.40;;
15818;SDS011;8010;53.986;12.106;2023-03-01T03:05:15;5.37;;;3.40;;
15818;SDS011;8010;53.986;12.106;2023-03-01T03:07:46;8.37;;;3.40;;
15818;SDS011;8010;53.986;12.106;2023-03-01T03:10:14;7.87;;;4.00;;
15818;SDS011;8010;53.986;12.106;2023-03-01T03:12:44;7.17;;;3.53;;
15818;SDS011;8010;53.986;12.106;2023-03-01T03:15:17;8.67;;;3.47;;
15818;SDS011;8010;53.986;12.106;2023-03-01T03:17:44;8.60;;;3.60;;
15818;SDS011;8010;53.986;12.106;2023-03-01T03:20:10;5.80;;;3.33;;
15818;SDS011;8010;53.986;12.106;2023-03-01T03:22:41;8.93;;;4.00;;
15818;SDS011;8010;53.986;12.106;2023-03-01T03:25:07;7.27;;;3.07;;
15818;SDS011;8010;53.986;12.106;2023-03-01T03:27:37;5.57;;;3.40;;
15818;SDS011;8010;53.986;12.106;2023-03-01T03:30:07;6.77;;;3.63;;
15818;SDS011;8010;53.986;12.106;2023-03-01T03:32:37;4.87;;;3.50;;
15818;SDS011;8010;53.986;12.106;2023-03-01T03:35:04;5.23;;;2.90;;
15818;SDS011;8010;53.986;12.106;2023-03-01T03:37:35;5.47;;;3.37;;
15818;SDS011;8010;53.986;12.106;2023-03-01T03:40:20;5.20;;;2.97;;
15818;SDS011;8010;53.986;12.106;2023-03-01T03:42:46;6.17;;;3.53;;
15818;SDS011;8010;53.986;12.106;2023-03-01T03:45:13;4.77;;;3.13;;
15818;SDS011;8010;53.986;12.106;2023-03-01T03:47:38;5.50;;;3.13;;
15818;SDS011;8010;53.986;12.106;2023-03-01T03:50:04;5.83;;;3.40;;
15818;SDS011;8010;53.986;12.106;2023-03-01T03:52:30;7.77;;;3.80;;
15818;SDS011;8010;53.986;12.106;2023-03-01T03:54:55;7.63;;;3.23;;
15818;SDS011;8010;53.986;12.106;2023-03-01T03:57:21;7.53;;;3.00;;
15818;SDS011;8010;53.986;12.106;2023-03-01T03:59:46;5.63;;;3.37;;
15818;SDS011;8010;53.986;12.106;2023-03-01T04:02:12;4.70;;;3.17;;
15818;SDS011;8010;53.986;12.106;2023-03-01T04:04:37;5.10;;;3.43;;
15818;SDS011;8010;53.986;12.106;2023-03-01T04:07:03;5.00;;;2.57;;
15818;SDS011;8010;53.986;12.106;2023-03-01T04:09:28;5.00;;;2.80;;
15818;SDS011;8010;53.986;12.106;2023-03-01T04:11:55;5.60;;;2.63;;
15818;SDS011;8010;53.986;12.106;2023-03-01T04:14:20;7.20;;;3.50;;
15818;SDS011;8010;53.986;12.106;2023-03-01T04:16:46;4.73;;;3.03;;
15818;SDS011;8010;53.986;12.106;2023-03-01T04:19:12;5.10;;;3.23;;
15818;SDS011;8010;53.986;12.106;2023-03-01T04:21:37;6.10;;;3.37;;
15818;SDS011;8010;53.986;12.106;2023-03-01T04:24:03;5.97;;;3.10;;
15818;SDS011;8010;53.986;12.106;2023-03-01T04:26:29;6.87;;;3.13;;
15818;SDS011;8010;53.986;12.106;2023-03-01T04:28:54;4.90;;;3.30;;
15818;SDS011;8010;53.986;12.106;2023-03-01T04:31:20;5.97;;;3.30;;
15818;SDS011;8010;53.986;12.106;2023-03-01T04:36:11;5.40;;;3.07;;
15818;SDS011;8010;53.986;12.106;2023-03-01T04:38:39;6.93;;;3.30;;
15818;SDS011;8010;53.986;12.106;2023-03-01T04:41:05;5.30;;;3.10;;
15818;SDS011;8010;53.986;12.106;2023-03-01T04:43:32;5.23;;;3.10;;
15818;SDS011;8010;53.986;12.106;2023-03-01T04:46:02;5.17;;;3.00;;
15818;SDS011;8010;53.986;12.106;2023-03-01T04:48:34;4.87;;;2.90;;
15818;SDS011;8010;53.986;12.106;2023-03-01T04:51:00;4.60;;;3.37;;
15818;SDS011;8010;53.986;12.106;2023-03-01T04:53:26;5.93;;;3.43;;
15818;SDS011;8010;53.986;12.106;2023-03-01T04:55:53;8.00;;;3.40;;
15818;SDS011;8010;53.986;12.106;2023-03-01T04:58:20;5.37;;;3.00;;
15818;SDS011;8010;53.986;12.106;2023-03-01T05:00:49;8.20;;;3.90;;
15818;SDS011;8010;53.986;12.106;2023-03-01T05:03:15;9.13;;;4.23;;
15818;SDS011;8010;53.986;12.106;2023-03-01T05:05:43;8.73;;;4.10;;
15818;SDS011;8010;53.986;12.106;2023-03-01T05:08:10;12.33;;;4.00;;
15818;SDS011;8010;53.986;12.106;2023-03-01T05:10:43;6.03;;;3.60;;
15818;SDS011;8010;53.986;12.106;2023-03-01T05:13:11;5.97;;;4.03;;
15818;SDS011;8010;53.986;12.106;2023-03-01T05:15:38;5.80;;;3.23;;
15818;SDS011;8010;53.986;12.106;2023-03-01T05:18:04;5.47;;;3.20;;
15818;SDS011;8010;53.986;12.106;2023-03-01T05:20:36;6.17;;;3.07;;
15818;SDS011;8010;53.986;12.106;2023-03-01T05:23:02;11.70;;;3.83;;
15818;SDS011;8010;53.986;12.106;2023-03-01T05:25:30;6.97;;;3.97;;
15818;SDS011;8010;53.986;12.106;2023-03-01T05:27:57;7.67;;;3.13;;
15818;SDS011;8010;53.986;12.106;2023-03-01T05:30:29;4.90;;;2.90;;
15818;SDS011;8010;53.986;12.106;2023-03-01T05:32:56;5.57;;;3.20;;
15818;SDS011;8010;53.986;12.106;2023-03-01T05:35:22;5.13;;;2.97;;
15818;SDS011;8010;53.986;12.106;2023-03-01T05:37:48;5.20;;;3.10;;
15818;SDS011;8010;53.986;12.106;2023-03-01T05:40:15;4.93;;;2.80;;
15818;SDS011;8010;53.986;12.106;2023-03-01T05:42:43;4.87;;;2.90;;
15818;SDS011;8010;53.986;12.106;2023-03-01T05:45:10;6.03;;;3.10;;
15818;SDS011;8010;53.986;12.106;2023-03-01T05:47:37;4.10;;;2.60;;
15818;SDS011;8010;53.986;12.106;2023-03-01T05:50:03;5.10;;;3.07;;
15818;SDS011;8010;53.986;12.106;2023-03-01T05:52:29;4.10;;;2.83;;
15818;SDS011;8010;53.986;12.106;2023-03-01T05:54:54;5.00;;;2.90;;
15818;SDS011;8010;53.986;12.106;2023-03-01T05:57:20;6.83;;;2.70;;
15818;SDS011;8010;53.986;12.106;2023-03-01T05:59:45;4.00;;;2.80;;
15818;SDS011;8010;53.986;12.106;2023-03-01T06:02:11;4.93;;;2.93;;
15818;SDS011;8010;53.986;12.106;2023-03-01T06:04:36;6.97;;;2.90;;
15818;SDS011;8010;53.986;12.106;2023-03-01T06:07:02;5.90;;;3.07;;
15818;SDS011;8010;53.986;12.106;2023-03-01T06:09:27;6.77;;;2.83;;
15818;SDS011;8010;53.986;12.106;2023-03-01T06:11:53;3.90;;;2.80;;
15818;SDS011;8010;53.986;12.106;2023-03-01T06:14:19;7.13;;;3.50;;
15818;SDS011;8010;53.986;12.106;2023-03-01T06:16:45;7.07;;;3.37;;
15818;SDS011;8010;53.986;12.106;2023-03-01T06:19:11;5.57;;;3.10;;
15818;SDS011;8010;53.986;12.106;2023-03-01T06:21:36;3.97;;;3.10;;
15818;SDS011;8010;53.986;12.106;2023-03-01T06:24:02;8.23;;;3.50;;
15818;SDS011;8010;53.986;12.106;2023-03-01T06:26:28;4.70;;;2.90;;
15818;SDS011;8010;53.986;12.106;2023-03-01T06:28:53;3.90;;;2.77;;
15818;SDS011;8010;53.986;12.106;2023-03-01T06:31:19;6.07;;;3.07;;
15818;SDS011;8010;53.986;12.106;2023-03-01T06:33:44;7.20;;;2.87;;
15818;SDS011;8010;53.986;12.106;2023-03-01T06:36:10;7.90;;;3.50;;
15818;SDS011;8010;53.986;12.106;2023-03-01T06:38:35;8.27;;;3.77;;
15818;SDS011;8010;53.986;12.106;2023-03-01T06:41:01;4.67;;;3.37;;
15818;SDS011;8010;53.986;12.106;2023-03-01T06:43:26;4.60;;;2.90;;
15818;SDS011;8010;53.986;12.106;2023-03-01T06:45:52;5.07;;;3.27;;
15818;SDS011;8010;53.986;12.106;2023-03-01T06:48:17;7.37;;;3.17;;
15818;SDS011;8010;53.986;12.106;2023-03-01T06:50:43;5.73;;;3.20;;
15818;SDS011;8010;53.986;12.106;2023-03-01T06:53:08;5.33;;;3.60;;
15818;SDS011;8010;53.986;12.106;2023-03-01T06:55:34;5.00;;;3.30;;
15818;SDS011;8010;53.986;12.106;2023-03-01T06:58:00;5.33;;;3.40;;
15818;SDS011;8010;53.986;12.106;2023-03-01T07:00:27;6.33;;;3.87;;
15818;SDS011;8010;53.986;12.106;2023-03-01T07:02:53;5.87;;;3.33;;
15818;SDS011;8010;53.986;12.106;2023-03-01T07:05:19;6.57;;;3.57;;
15818;SDS011;8010;53.986;12.106;2023-03-01T07:07:44;5.40;;;3.70;;
15818;SDS011;8010;53.986;12.106;2023-03-01T07:10:10;6.43;;;3.40;;
15818;SDS011;8010;53.986;12.106;2023-03-01T07:12:36;5.00;;;3.33;;
15818;SDS011;8010;53.986;12.106;2023-03-01T07:15:01;6.10;;;3.43;;
15818;SDS011;8010;53.986;12.106;2023-03-01T07:17:27;5.30;;;3.20;;
15818;SDS011;8010;53.986;12.106;2023-03-01T07:19:53;8.30;;;3.33;;
15818;SDS011;8010;53.986;12.106;2023-03-01T07:22:19;5.93;;;3.70;;
15818;SDS011;8010;53.986;12.106;2023-03-01T07:24:44;5.97;;;3.80;;
15818;SDS011;8010;53.986;12.106;2023-03-01T07:27:10;8.17;;;3.50;;
15818;SDS011;8010;53.986;12.106;2023-03-01T07:29:37;5.60;;;3.73;;
15818;SDS011;8010;53.986;12.106;2023-03-01T07:32:03;4.93;;;3.40;;
15818;SDS011;8010;53.986;12.106;2023-03-01T07:34:29;5.67;;;4.00;;
15818;SDS011;8010;53.986;12.106;2023-03-01T07:36:55;6.17;;;3.87;;
15818;SDS011;8010;53.986;12.106;2023-03-01T07:39:20;6.80;;;3.77;;
15818;SDS011;8010;53.986;12.106;2023-03-01T07:41:47;6.97;;;3.77;;
15818;SDS011;8010;53.986;12.106;2023-03-01T07:44:13;6.97;;;3.93;;
15818;SDS011;8010;53.986;12.106;2023-03-01T07:46:40;5.97;;;3.57;;
15818;SDS011;8010;53.986;12.106;2023-03-01T07:49:05;5.87;;;3.37;;
15818;SDS011;8010;53.986;12.106;2023-03-01T07:51:31;6.27;;;3.80;;
15818;SDS011;8010;53.986;12.106;2023-03-01T07:53:57;8.27;;;3.93;;
15818;SDS011;8010;53.986;12.106;2023-03-01T07:56:22;8.63;;;3.93;;
15818;SDS011;8010;53.986;12.106;2023-03-01T07:58:48;6.47;;;3.93;;
15818;SDS011;8010;53.986;12.106;2023-03-01T08:01:14;6.47;;;3.90;;
15818;SDS011;8010;53.986;12.106;2023-03-01T08:03:42;7.83;;;4.83;;
15818;SDS011;8010;53.986;12.106;2023-03-01T08:06:09;9.13;;;4.27;;
15818;SDS011;8010;53.986;12.106;2023-03-01T08:08:35;6.73;;;3.70;;
15818;SDS011;8010;53.986;12.106;2023-03-01T08:11:02;7.03;;;4.63;;
15818;SDS011;8010;53.986;12.106;2023-03-01T08:13:29;9.10;;;5.17;;
15818;SDS011;8010;53.986;12.106;2023-03-01T08:15:59;11.43;;;6.37;;
15818;SDS011;8010;53.986;12.106;2023-03-01T08:18:27;15.37;;;6.53;;
15818;SDS011;8010;53.986;12.106;2023-03-01T08:20:52;12.87;;;7.13;;
15818;SDS011;8010;53.986;12.106;2023-03-01T08:23:18;13.33;;;7.27;;
15818;SDS011;8010;53.986;12.106;2023-03-01T08:25:43;11.87;;;6.83;;
15818;SDS011;8010;53.986;12.106;2023-03-01T08:28:09;15.63;;;7.33;;
15818;SDS011;8010;53.986;12.106;2023-03-01T08:30:34;16.20;;;8.63;;
15818;SDS011;8010;53.986;12.106;2023-03-01T08:33:00;18.93;;;9.20;;
15818;SDS011;8010;53.986;12.106;2023-03-01T08:35:25;19.73;;;10.87;;
15818;SDS011;8010;53.986;12.106;2023-03-01T08:37:51;22.17;;;10.53;;
15818;SDS011;8010;53.986;12.106;2023-03-01T08:40:17;22.20;;;11.00;;
15818;SDS011;8010;53.986;12.106;2023-03-01T08:42:42;26.17;;;11.63;;
15818;SDS011;8010;53.986;12.106;2023-03-01T08:45:08;30.23;;;11.47;;
15818;SDS011;8010;53.986;12.106;2023-03-01T08:47:35;22.03;;;10.67;;
15818;SDS011;8010;53.986;12.106;2023-03-01T08:50:01;20.93;;;10.97;;
15818;SDS011;8010;53.986;12.106;2023-03-01T08:52:26;18.97;;;10.93;;
15818;SDS011;8010;53.986;12.106;2023-03-01T08:54:52;25.73;;;11.60;;
15818;SDS011;8010;53.986;12.106;2023-03-01T08:57:18;43.23;;;11.83;;
15818;SDS011;8010;53.986;12.106;2023-03-01T08:59:44;18.07;;;10.50;;
15818;SDS011;8010;53.986;12.106;2023-03-01T09:02:11;22.87;;;10.73;;
15818;SDS011;8010;53.986;12.106;2023-03-01T09:04:39;17.40;;;10.73;;
15818;SDS011;8010;53.986;12.106;2023-03-01T09:07:05;19.40;;;9.73;;
15818;SDS011;8010;53.986;12.106;2023-03-01T09:09:31;22.73;;;10.77;;
15818;SDS011;8010;53.986;12.106;2023-03-01T09:11:56;22.53;;;11.63;;
15818;SDS011;8010;53.986;12.106;2023-03-01T09:14:22;20.83;;;11.30;;
15818;SDS011;8010;53.986;12.106;2023-03-01T09:16:47;19.20;;;10.37;;
15818;SDS011;8010;53.986;12.106;2023-03-01T09:19:13;19.57;;;10.93;;
15818;SDS011;8010;53.986;12.106;2023-03-01T09:21:39;25.53;;;11.63;;
15818;SDS011;8010;53.986;12.106;2023-03-01T09:24:05;22.17;;;11.07;;
15818;SDS011;8010;53.986;12.106;2023-03-01T09:26:40;24.57;;;11.80;;
15818;SDS011;8010;53.986;12.106;2023-03-01T09:29:06;20.10;;;11.03;;
15818;SDS011;8010;53.986;12.106;2023-03-01T09:31:34;22.40;;;12.07;;
15818;SDS011;8010;53.986;12.106;2023-03-01T09:34:00;21.90;;;12.37;;
15818;SDS011;8010;53.986;12.106;2023-03-01T09:36:25;26.63;;;12.67;;
15818;SDS011;8010;53.986;12.106;2023-03-01T09:38:51;22.83;;;12.97;;
15818;SDS011;8010;53.986;12.106;2023-03-01T09:44:23;22.73;;;12.10;;
15818;SDS011;8010;53.986;12.106;2023-03-01T09:47:09;20.77;;;11.73;;
15818;SDS011;8010;53.986;12.106;2023-03-01T09:49:41;22.10;;;11.27;;
15818;SDS011;8010;53.986;12.106;2023-03-01T09:55:11;21.70;;;11.80;;
15818;SDS011;8010;53.986;12.106;2023-03-01T10:05:37;24.00;;;12.70;;
15818;SDS011;8010;53.986;12.106;2023-03-01T10:10:54;20.30;;;12.10;;
15818;SDS011;8010;53.986;12.106;2023-03-01T10:13:22;28.30;;;12.37;;
15818;SDS011;8010;53.986;12.106;2023-03-01T10:15:59;25.73;;;13.33;;
15818;SDS011;8010;53.986;12.106;2023-03-01T10:18:31;23.83;;;12.27;;
15818;SDS011;8010;53.986;12.106;2023-03-01T10:20:59;24.50;;;12.07;;
15818;SDS011;8010;53.986;12.106;2023-03-01T10:23:27;22.60;;;12.00;;
15818;SDS011;8010;53.986;12.106;2023-03-01T10:26:07;20.83;;;11.47;;
15818;SDS011;8010;53.986;12.106;2023-03-01T10:34:16;24.60;;;12.37;;
15818;SDS011;8010;53.986;12.106;2023-03-01T10:36:48;24.20;;;11.73;;
15818;SDS011;8010;53.986;12.106;2023-03-01T10:39:22;21.97;;;12.57;;
15818;SDS011;8010;53.986;12.106;2023-03-01T10:44:48;23.03;;;11.50;;
15818;SDS011;8010;53.986;12.106;2023-03-01T10:47:21;24.87;;;12.67;;
15818;SDS011;8010;53.986;12.106;2023-03-01T10:50:05;25.53;;;11.57;;
15818;SDS011;8010;53.986;12.106;2023-03-01T10:53:01;23.23;;;11.37;;
15818;SDS011;8010;53.986;12.106;2023-03-01T10:55:38;24.40;;;10.93;;
15818;SDS011;8010;53.986;12.106;2023-03-01T10:58:11;26.13;;;12.80;;
15818;SDS011;8010;53.986;12.106;2023-03-01T11:00:46;22.37;;;12.40;;
15818;SDS011;8010;53.986;12.106;2023-03-01T11:03:18;22.97;;;11.63;;
15818;SDS011;8010;53.986;12.106;2023-03-01T11:11:10;22.87;;;12.03;;
15818;SDS011;8010;53.986;12.106;2023-03-01T11:13:54;24.07;;;13.27;;
15818;SDS011;8010;53.986;12.106;2023-03-01T11:16:38;25.03;;;12.33;;
15818;SDS011;8010;53.986;12.106;2023-03-01T11:21:36;24.27;;;12.60;;
15818;SDS011;8010;53.986;12.106;2023-03-01T11:24:06;24.17;;;12.73;;
15818;SDS011;8010;53.986;12.106;2023-03-01T11:26:38;26.30;;;13.17;;
15818;SDS011;8010;53.986;12.106;2023-03-01T11:29:26;25.77;;;13.07;;
15818;SDS011;8010;53.986;12.106;2023-03-01T11:31:57;25.40;;;12.53;;
15818;SDS011;8010;53.986;12.106;2023-03-01T11:37:34;24.37;;;12.03;;
15818;SDS011;8010;53.986;12.106;2023-03-01T11:40:20;22.87;;;12.03;;
15818;SDS011;8010;53.986;12.106;2023-03-01T11:48:51;25.43;;;13.30;;
15818;SDS011;8010;53.986;12.106;2023-03-01T11:51:36;25.67;;;13.30;;
15818;SDS011;8010;53.986;12.106;2023-03-01T11:54:13;25.23;;;14.37;;
15818;SDS011;8010;53.986;12.106;2023-03-01T11:56:47;26.00;;;13.40;;
15818;SDS011;8010;53.986;12.106;2023-03-01T12:04:49;24.47;;;13.63;;
15818;SDS011;8010;53.986;12.106;2023-03-01T12:07:49;25.30;;;12.90;;
15818;SDS011;8010;53.986;12.106;2023-03-01T12:13:01;22.03;;;12.27;;
15818;SDS011;8010;53.986;12.106;2023-03-01T12:21:21;23.83;;;12.77;;
15818;SDS011;8010;53.986;12.106;2023-03-01T12:26:53;23.57;;;12.93;;
15818;SDS011;8010;53.986;12.106;2023-03-01T12:32:36;27.50;;;13.90;;
15818;SDS011;8010;53.986;12.106;2023-03-01T12:35:19;29.10;;;13.57;;
15818;SDS011;8010;53.986;12.106;2023-03-01T12:38:18;25.13;;;13.30;;
15818;SDS011;8010;53.986;12.106;2023-03-01T12:44:37;27.87;;;13.93;;
15818;SDS011;8010;53.986;12.106;2023-03-01T12:47:40;35.60;;;15.20;;
15818;SDS011;8010;53.986;12.106;2023-03-01T12:50:17;31.87;;;16.27;;
15818;SDS011;8010;53.986;12.106;2023-03-01T12:52:50;33.40;;;15.90;;
15818;SDS011;8010;53.986;12.106;2023-03-01T12:55:29;30.07;;;15.70;;
15818;SDS011;8010;53.986;12.106;2023-03-01T12:58:21;29.77;;;14.40;;
15818;SDS011;8010;53.986;12.106;2023-03-01T13:01:12;28.43;;;14.10;;
15818;SDS011;8010;53.986;12.106;2023-03-01T13:09:55;31.53;;;13.83;;
15818;SDS011;8010;53.986;12.106;2023-03-01T13:12:43;30.13;;;14.47;;
15818;SDS011;8010;53.986;12.106;2023-03-01T13:17:52;30.10;;;14.30;;
15818;SDS011;8010;53.986;12.106;2023-03-01T13:20:20;29.53;;;14.87;;
15818;SDS011;8010;53.986;12.106;2023-03-01T13:30:56;28.03;;;12.50;;
15818;SDS011;8010;53.986;12.106;2023-03-01T13:35:48;29.13;;;13.17;;
15818;SDS011;8010;53.986;12.106;2023-03-01T13:38:48;27.40;;;13.33;;
15818;SDS011;8010;53.986;12.106;2023-03-01T13:41:08;28.00;;;13.83;;
15818;SDS011;8010;53.986;12.106;2023-03-01T13:43:37;26.77;;;13.13;;
15818;SDS011;8010;53.986;12.106;2023-03-01T13:46:07;25.40;;;12.73;;
15818;SDS011;8010;53.986;12.106;2023-03-01T13:48:46;24.03;;;12.07;;
15818;SDS011;8010;53.986;12.106;2023-03-01T13:51:15;25.03;;;12.43;;
15818;SDS011;8010;53.986;12.106;2023-03-01T13:53:44;20.60;;;11.13;;
15818;SDS011;8010;53.986;12.106;2023-03-01T13:56:18;24.80;;;12.77;;
15818;SDS011;8010;53.986;12.106;2023-03-01T13:58:59;24.33;;;12.40;;
15818;SDS011;8010;53.986;12.106;2023-03-01T14:01:29;28.00;;;14.07;;
15818;SDS011;8010;53.986;12.106;2023-03-01T14:04:14;24.10;;;12.43;;
15818;SDS011;8010;53.986;12.106;2023-03-01T14:06:47;26.23;;;13.53;;
15818;SDS011;8010;53.986;12.106;2023-03-01T14:09:17;24.70;;;13.07;;
15818;SDS011;8010;53.986;12.106;2023-03-01T14:14:40;27.17;;;13.50;;
15818;SDS011;8010;53.986;12.106;2023-03-01T14:17:19;24.23;;;13.67;;
15818;SDS011;8010;53.986;12.106;2023-03-01T14:19:57;25.87;;;12.57;;
15818;SDS011;8010;53.986;12.106;2023-03-01T14:22:29;23.63;;;10.93;;
15818;SDS011;8010;53.986;12.106;2023-03-01T14:25:00;24.43;;;12.53;;
15818;SDS011;8010;53.986;12.106;2023-03-01T14:27:30;27.00;;;12.97;;
15818;SDS011;8010;53.986;12.106;2023-03-01T14:30:03;21.60;;;11.83;;
15818;SDS011;8010;53.986;12.106;2023-03-01T14:32:37;25.03;;;12.67;;
15818;SDS011;8010;53.986;12.106;2023-03-01T14:35:16;26.53;;;12.33;;
15818;SDS011;8010;53.986;12.106;2023-03-01T14:37:45;25.00;;;12.07;;
15818;SDS011;8010;53.986;12.106;2023-03-01T14:40:19;23.13;;;12.80;;
15818;SDS011;8010;53.986;12.106;2023-03-01T14:42:47;26.53;;;12.30;;
15818;SDS011;8010;53.986;12.106;2023-03-01T14:45:13;25.43;;;12.50;;
15818;SDS011;8010;53.986;12.106;2023-03-01T14:47:39;31.33;;;13.83;;
15818;SDS011;8010;53.986;12.106;2023-03-01T14:50:09;28.50;;;13.10;;
15818;SDS011;8010;53.986;12.106;2023-03-01T14:52:41;30.93;;;14.53;;
15818;SDS011;8010;53.986;12.106;2023-03-01T14:55:14;29.00;;;14.13;;
15818;SDS011;8010;53.986;12.106;2023-03-01T14:57:51;30.07;;;13.63;;
15818;SDS011;8010;53.986;12.106;2023-03-01T15:00:20;28.17;;;14.07;;
15818;SDS011;8010;53.986;12.106;2023-03-01T15:02:50;26.97;;;13.63;;
15818;SDS011;8010;53.986;12.106;2023-03-01T15:05:20;27.77;;;13.30;;
15818;SDS011;8010;53.986;12.106;2023-03-01T15:07:50;22.77;;;12.00;;
15818;SDS011;8010;53.986;12.106;2023-03-01T15:10:21;23.57;;;11.90;;
15818;SDS011;8010;53.986;12.106;2023-03-01T15:12:48;23.90;;;12.17;;
15818;SDS011;8010;53.986;12.106;2023-03-01T15:17:49;23.20;;;10.57;;
15818;SDS011;8010;53.986;12.106;2023-03-01T15:20:20;20.33;;;11.10;;
15818;SDS011;8010;53.986;12.106;2023-03-01T15:22:50;22.00;;;11.93;;
15818;SDS011;8010;53.986;12.106;2023-03-01T15:25:18;21.63;;;11.50;;
15818;SDS011;8010;53.986;12.106;2023-03-01T15:27:46;21.77;;;11.23;;
15818;SDS011;8010;53.986;12.106;2023-03-01T15:30:17;21.47;;;11.30;;
15818;SDS011;8010;53.986;12.106;2023-03-01T15:33:19;23.80;;;10.80;;
15818;SDS011;8010;53.986;12.106;2023-03-01T15:36:03;21.50;;;11.60;;
15818;SDS011;8010;53.986;12.106;2023-03-01T15:39:01;23.10;;;10.83;;
15818;SDS011;8010;53.986;12.106;2023-03-01T15:41:47;20.50;;;10.43;;
15818;SDS011;8010;53.986;12.106;2023-03-01T15:44:14;22.57;;;11.10;;
15818;SDS011;8010;53.986;12.106;2023-03-01T15:46:45;21.03;;;10.63;;
15818;SDS011;8010;53.986;12.106;2023-03-01T15:49:24;21.43;;;10.70;;
15818;SDS011;8010;53.986;12.106;2023-03-01T15:52:00;19.63;;;10.93;;
15818;SDS011;8010;53.986;12.106;2023-03-01T15:54:25;22.20;;;10.87;;
15818;SDS011;8010;53.986;12.106;2023-03-01T15:56:54;19.47;;;10.03;;
15818;SDS011;8010;53.986;12.106;2023-03-01T15:59:20;20.67;;;11.17;;
15818;SDS011;8010;53.986;12.106;2023-03-01T16:01:47;23.90;;;10.47;;
15818;SDS011;8010;53.986;12.106;2023-03-01T16:04:13;22.90;;;10.77;;
15818;SDS011;8010;53.986;12.106;2023-03-01T16:06:48;22.80;;;11.10;;
15818;SDS011;8010;53.986;12.106;2023-03-01T16:09:21;19.67;;;9.70;;
15818;SDS011;8010;53.986;12.106;2023-03-01T16:11:48;20.93;;;10.87;;
15818;SDS011;8010;53.986;12.106;2023-03-01T16:14:14;18.53;;;9.97;;
15818;SDS011;8010;53.986;12.106;2023-03-01T16:16:41;18.17;;;10.03;;
15818;SDS011;8010;53.986;12.106;2023-03-01T16:19:07;17.57;;;10.10;;
15818;SDS011;8010;53.986;12.106;2023-03-01T16:21:32;20.43;;;10.57;;
15818;SDS011;8010;53.986;12.106;2023-03-01T16:23:58;17.53;;;9.43;;
15818;SDS011;8010;53.986;12.106;2023-03-01T16:26:23;18.47;;;9.23;;
15818;SDS011;8010;53.986;12.106;2023-03-01T16:28:49;20.37;;;10.03;;
15818;SDS011;8010;53.986;12.106;2023-03-01T16:31:18;18.33;;;9.10;;
15818;SDS011;8010;53.986;12.106;2023-03-01T16:33:44;20.97;;;10.13;;